sensor_id;sensor_type;location;lat;lon;timestamp;P1;durP1;ratioP1;P2;durP2;ratioP2
450;SDS011;212;48.748;9.174;2022-08-19T00:00:17;16.90;;;16.03;;
450;SDS011;212;48.748;9.174;2022-08-19T00:02:44;17.50;;;15.80;;
450;SDS011;212;48.748;9.174;2022-08-19T00:05:12;17.53;;;16.63;;
450;SDS011;212;48.748;9.174;2022-08-19T00:07:39;16.37;;;15.57;;
450;SDS011;212;48.748;9.174;2022-08-19T00:10:08;17.17;;;16.27;;
450;SDS011;212;48.748;9.174;2022-08-19T00:12:37;17.50;;;16.60;;
450;SDS011;212;48.748;9.174;2022-08-19T00:15:07;17.93;;;17.03;;
450;SDS011;212;48.748;9.174;2022-08-19T00:17:37;17.03;;;16.17;;
450;SDS011;212;48.748;9.174;2022-08-19T00:20:06;17.20;;;16.30;;
450;SDS011;212;48.748;9.174;2022-08-19T00:22:33;17.17;;;16.27;;
450;SDS011;212;48.748;9.174;2022-08-19T00:25:00;17.47;;;16.57;;
450;SDS011;212;48.748;9.174;2022-08-19T00:27:27;16.10;;;15.30;;
450;SDS011;212;48.748;9.174;2022-08-19T00:29:53;15.97;;;15.17;;
450;SDS011;212;48.748;9.174;2022-08-19T00:32:21;17.30;;;16.40;;
450;SDS011;212;48.748;9.174;2022-08-19T00:34:49;17.53;;;16.63;;
450;SDS011;212;48.748;9.174;2022-08-19T00:37:18;17.53;;;16.63;;
450;SDS011;212;48.748;9.174;2022-08-19T00:39:47;18.17;;;17.27;;
450;SDS011;212;48.748;9.174;2022-08-19T00:42:14;16.07;;;15.27;;
450;SDS011;212;48.748;9.174;2022-08-19T00:44:41;17.87;;;16.97;;
450;SDS011;212;48.748;9.174;2022-08-19T00:47:08;21.37;;;17.03;;
450;SDS011;212;48.748;9.174;2022-08-19T00:49:39;17.23;;;16.33;;
450;SDS011;212;48.748;9.174;2022-08-19T00:52:11;16.40;;;15.60;;
450;SDS011;212;48.748;9.174;2022-08-19T00:54:40;17.07;;;16.20;;
450;SDS011;212;48.748;9.174;2022-08-19T00:57:08;19.93;;;18.90;;
450;SDS011;212;48.748;9.174;2022-08-19T00:59:42;18.43;;;17.53;;
450;SDS011;212;48.748;9.174;2022-08-19T01:02:13;17.60;;;16.70;;
450;SDS011;212;48.748;9.174;2022-08-19T01:04:41;17.67;;;16.77;;
450;SDS011;212;48.748;9.174;2022-08-19T01:07:08;17.80;;;16.90;;
450;SDS011;212;48.748;9.174;2022-08-19T01:09:35;18.20;;;17.30;;
450;SDS011;212;48.748;9.174;2022-08-19T01:12:02;16.57;;;15.77;;
450;SDS011;212;48.748;9.174;2022-08-19T01:14:29;18.17;;;17.27;;
450;SDS011;212;48.748;9.174;2022-08-19T01:16:56;18.40;;;17.50;;
450;SDS011;212;48.748;9.174;2022-08-19T01:19:26;16.30;;;15.50;;
450;SDS011;212;48.748;9.174;2022-08-19T01:21:57;17.60;;;16.70;;
450;SDS011;212;48.748;9.174;2022-08-19T01:24:29;18.87;;;17.93;;
450;SDS011;212;48.748;9.174;2022-08-19T01:26:57;17.27;;;16.37;;
450;SDS011;212;48.748;9.174;2022-08-19T01:29:24;16.60;;;15.80;;
450;SDS011;212;48.748;9.174;2022-08-19T01:31:51;18.10;;;17.20;;
450;SDS011;212;48.748;9.174;2022-08-19T01:34:18;17.37;;;16.47;;
450;SDS011;212;48.748;9.174;2022-08-19T01:36:46;16.13;;;15.33;;
450;SDS011;212;48.748;9.174;2022-08-19T01:39:15;17.87;;;16.97;;
450;SDS011;212;48.748;9.174;2022-08-19T01:41:44;18.07;;;17.17;;
450;SDS011;212;48.748;9.174;2022-08-19T01:44:11;18.23;;;17.33;;
450;SDS011;212;48.748;9.174;2022-08-19T01:46:38;17.70;;;16.80;;
450;SDS011;212;48.748;9.174;2022-08-19T01:49:05;17.10;;;16.20;;
450;SDS011;212;48.748;9.174;2022-08-19T01:51:33;19.53;;;18.53;;
450;SDS011;212;48.748;9.174;2022-08-19T01:54:00;18.23;;;17.33;;
450;SDS011;212;48.748;9.174;2022-08-19T01:56:26;18.40;;;17.50;;
450;SDS011;212;48.748;9.174;2022-08-19T01:58:55;18.50;;;17.60;;
450;SDS011;212;48.748;9.174;2022-08-19T02:01:24;18.83;;;17.90;;
450;SDS011;212;48.748;9.174;2022-08-19T02:03:50;19.03;;;18.03;;
450;SDS011;212;48.748;9.174;2022-08-19T02:06:19;17.83;;;16.93;;
450;SDS011;212;48.748;9.174;2022-08-19T02:08:46;19.97;;;18.97;;
450;SDS011;212;48.748;9.174;2022-08-19T02:11:18;20.37;;;19.37;;
450;SDS011;212;48.748;9.174;2022-08-19T02:13:46;18.63;;;17.73;;
450;SDS011;212;48.748;9.174;2022-08-19T02:16:15;19.50;;;18.50;;
450;SDS011;212;48.748;9.174;2022-08-19T02:18:42;19.10;;;18.10;;
450;SDS011;212;48.748;9.174;2022-08-19T02:21:09;19.30;;;18.30;;
450;SDS011;212;48.748;9.174;2022-08-19T02:23:37;20.60;;;19.60;;
450;SDS011;212;48.748;9.174;2022-08-19T02:26:04;20.30;;;19.30;;
450;SDS011;212;48.748;9.174;2022-08-19T02:28:31;20.60;;;19.60;;
450;SDS011;212;48.748;9.174;2022-08-19T02:30:58;22.00;;;20.90;;
450;SDS011;212;48.748;9.174;2022-08-19T02:33:28;22.33;;;20.63;;
450;SDS011;212;48.748;9.174;2022-08-19T02:35:55;21.00;;;19.97;;
450;SDS011;212;48.748;9.174;2022-08-19T02:38:22;20.50;;;19.47;;
450;SDS011;212;48.748;9.174;2022-08-19T02:40:50;19.60;;;18.60;;
450;SDS011;212;48.748;9.174;2022-08-19T02:43:18;20.50;;;19.13;;
450;SDS011;212;48.748;9.174;2022-08-19T02:45:46;19.47;;;18.53;;
450;SDS011;212;48.748;9.174;2022-08-19T02:48:14;24.93;;;20.90;;
450;SDS011;212;48.748;9.174;2022-08-19T02:50:43;21.37;;;20.27;;
450;SDS011;212;48.748;9.174;2022-08-19T02:53:10;22.73;;;20.73;;
450;SDS011;212;48.748;9.174;2022-08-19T02:55:41;22.30;;;21.20;;
450;SDS011;212;48.748;9.174;2022-08-19T02:58:09;23.03;;;21.23;;
450;SDS011;212;48.748;9.174;2022-08-19T03:00:35;22.10;;;20.90;;
450;SDS011;212;48.748;9.174;2022-08-19T03:03:07;22.77;;;20.80;;
450;SDS011;212;48.748;9.174;2022-08-19T03:05:33;24.33;;;23.13;;
450;SDS011;212;48.748;9.174;2022-08-19T03:08:02;23.40;;;22.20;;
450;SDS011;212;48.748;9.174;2022-08-19T03:10:30;20.83;;;19.80;;
450;SDS011;212;48.748;9.174;2022-08-19T03:12:57;25.63;;;23.00;;
450;SDS011;212;48.748;9.174;2022-08-19T03:15:24;26.07;;;24.77;;
450;SDS011;212;48.748;9.174;2022-08-19T03:17:51;26.90;;;25.60;;
450;SDS011;212;48.748;9.174;2022-08-19T03:20:18;26.90;;;25.60;;
450;SDS011;212;48.748;9.174;2022-08-19T03:22:44;25.50;;;24.20;;
450;SDS011;212;48.748;9.174;2022-08-19T03:25:12;26.03;;;24.60;;
450;SDS011;212;48.748;9.174;2022-08-19T03:27:39;26.20;;;24.90;;
450;SDS011;212;48.748;9.174;2022-08-19T03:30:06;26.83;;;25.53;;
450;SDS011;212;48.748;9.174;2022-08-19T03:32:34;27.40;;;26.00;;
450;SDS011;212;48.748;9.174;2022-08-19T03:35:01;26.87;;;25.57;;
450;SDS011;212;48.748;9.174;2022-08-19T03:37:28;26.20;;;24.90;;
450;SDS011;212;48.748;9.174;2022-08-19T03:39:54;27.17;;;25.83;;
450;SDS011;212;48.748;9.174;2022-08-19T03:42:22;29.60;;;26.90;;
450;SDS011;212;48.748;9.174;2022-08-19T03:44:51;26.80;;;25.50;;
450;SDS011;212;48.748;9.174;2022-08-19T03:47:18;24.73;;;23.53;;
450;SDS011;212;48.748;9.174;2022-08-19T03:49:45;26.70;;;25.20;;
450;SDS011;212;48.748;9.174;2022-08-19T03:52:12;27.17;;;25.73;;
450;SDS011;212;48.748;9.174;2022-08-19T03:54:39;29.90;;;28.40;;
450;SDS011;212;48.748;9.174;2022-08-19T03:57:06;26.47;;;24.40;;
450;SDS011;212;48.748;9.174;2022-08-19T03:59:35;27.60;;;26.23;;
450;SDS011;212;48.748;9.174;2022-08-19T04:02:06;30.13;;;28.63;;
450;SDS011;212;48.748;9.174;2022-08-19T04:04:34;27.27;;;25.70;;
450;SDS011;212;48.748;9.174;2022-08-19T04:07:02;28.00;;;26.43;;
450;SDS011;212;48.748;9.174;2022-08-19T04:09:29;28.47;;;27.07;;
450;SDS011;212;48.748;9.174;2022-08-19T04:11:56;27.63;;;26.23;;
450;SDS011;212;48.748;9.174;2022-08-19T04:14:24;27.20;;;25.87;;
450;SDS011;212;48.748;9.174;2022-08-19T04:16:54;29.27;;;27.87;;
450;SDS011;212;48.748;9.174;2022-08-19T04:19:21;29.37;;;27.27;;
450;SDS011;212;48.748;9.174;2022-08-19T04:21:49;28.33;;;26.97;;
450;SDS011;212;48.748;9.174;2022-08-19T04:24:18;28.77;;;27.37;;
450;SDS011;212;48.748;9.174;2022-08-19T04:26:46;31.37;;;29.87;;
450;SDS011;212;48.748;9.174;2022-08-19T04:29:15;31.00;;;28.00;;
450;SDS011;212;48.748;9.174;2022-08-19T04:31:43;29.10;;;27.70;;
450;SDS011;212;48.748;9.174;2022-08-19T04:34:13;32.37;;;30.60;;
450;SDS011;212;48.748;9.174;2022-08-19T04:36:42;29.63;;;28.17;;
450;SDS011;212;48.748;9.174;2022-08-19T04:39:11;28.27;;;26.87;;
450;SDS011;212;48.748;9.174;2022-08-19T04:41:40;31.43;;;29.57;;
450;SDS011;212;48.748;9.174;2022-08-19T04:44:25;31.83;;;30.23;;
450;SDS011;212;48.748;9.174;2022-08-19T04:46:55;31.97;;;30.37;;
450;SDS011;212;48.748;9.174;2022-08-19T04:49:23;31.40;;;29.90;;
450;SDS011;212;48.748;9.174;2022-08-19T04:51:52;31.47;;;29.93;;
450;SDS011;212;48.748;9.174;2022-08-19T04:54:20;29.77;;;28.27;;
450;SDS011;212;48.748;9.174;2022-08-19T04:56:50;30.90;;;27.20;;
450;SDS011;212;48.748;9.174;2022-08-19T04:59:17;28.17;;;26.73;;
450;SDS011;212;48.748;9.174;2022-08-19T05:01:45;29.80;;;28.30;;
450;SDS011;212;48.748;9.174;2022-08-19T05:04:14;29.70;;;28.20;;
450;SDS011;212;48.748;9.174;2022-08-19T05:06:43;29.67;;;28.17;;
450;SDS011;212;48.748;9.174;2022-08-19T05:09:10;30.33;;;28.83;;
450;SDS011;212;48.748;9.174;2022-08-19T05:11:36;28.53;;;27.10;;
450;SDS011;212;48.748;9.174;2022-08-19T05:14:04;29.00;;;27.57;;
450;SDS011;212;48.748;9.174;2022-08-19T05:16:31;31.30;;;27.63;;
450;SDS011;212;48.748;9.174;2022-08-19T05:18:58;29.03;;;27.63;;
450;SDS011;212;48.748;9.174;2022-08-19T05:21:44;32.03;;;30.43;;
450;SDS011;212;48.748;9.174;2022-08-19T05:24:29;28.50;;;27.10;;
450;SDS011;212;48.748;9.174;2022-08-19T05:26:59;29.50;;;27.87;;
450;SDS011;212;48.748;9.174;2022-08-19T05:29:27;30.23;;;28.73;;
450;SDS011;212;48.748;9.174;2022-08-19T05:31:56;28.43;;;27.03;;
450;SDS011;212;48.748;9.174;2022-08-19T05:34:23;29.63;;;28.13;;
450;SDS011;212;48.748;9.174;2022-08-19T05:36:54;27.87;;;26.50;;
450;SDS011;212;48.748;9.174;2022-08-19T05:39:23;24.90;;;23.70;;
450;SDS011;212;48.748;9.174;2022-08-19T05:41:52;29.30;;;27.07;;
450;SDS011;212;48.748;9.174;2022-08-19T05:44:22;27.00;;;25.70;;
450;SDS011;212;48.748;9.174;2022-08-19T05:46:49;26.60;;;25.30;;
450;SDS011;212;48.748;9.174;2022-08-19T05:49:17;27.20;;;25.87;;
450;SDS011;212;48.748;9.174;2022-08-19T05:51:44;29.13;;;27.17;;
450;SDS011;212;48.748;9.174;2022-08-19T05:54:12;26.70;;;25.40;;
450;SDS011;212;48.748;9.174;2022-08-19T05:56:39;29.77;;;28.27;;
450;SDS011;212;48.748;9.174;2022-08-19T05:59:07;28.03;;;26.63;;
450;SDS011;212;48.748;9.174;2022-08-19T06:01:36;29.20;;;26.73;;
450;SDS011;212;48.748;9.174;2022-08-19T06:04:04;25.60;;;24.30;;
450;SDS011;212;48.748;9.174;2022-08-19T06:06:31;26.80;;;25.47;;
450;SDS011;212;48.748;9.174;2022-08-19T06:08:59;28.07;;;26.43;;
450;SDS011;212;48.748;9.174;2022-08-19T06:11:33;25.17;;;23.93;;
450;SDS011;212;48.748;9.174;2022-08-19T06:14:03;27.90;;;26.50;;
450;SDS011;212;48.748;9.174;2022-08-19T06:16:33;29.17;;;27.77;;
450;SDS011;212;48.748;9.174;2022-08-19T06:19:03;28.77;;;27.37;;
450;SDS011;212;48.748;9.174;2022-08-19T06:21:33;28.47;;;27.07;;
450;SDS011;212;48.748;9.174;2022-08-19T06:24:02;27.07;;;25.73;;
450;SDS011;212;48.748;9.174;2022-08-19T06:26:30;30.20;;;28.70;;
450;SDS011;212;48.748;9.174;2022-08-19T06:28:58;27.43;;;26.07;;
450;SDS011;212;48.748;9.174;2022-08-19T06:31:26;29.47;;;28.00;;
450;SDS011;212;48.748;9.174;2022-08-19T06:33:54;28.90;;;27.50;;
450;SDS011;212;48.748;9.174;2022-08-19T06:36:21;27.27;;;25.93;;
450;SDS011;212;48.748;9.174;2022-08-19T06:38:52;29.43;;;27.97;;
450;SDS011;212;48.748;9.174;2022-08-19T06:41:19;29.97;;;28.47;;
450;SDS011;212;48.748;9.174;2022-08-19T06:43:45;33.63;;;30.97;;
450;SDS011;212;48.748;9.174;2022-08-19T06:46:15;30.67;;;28.97;;
450;SDS011;212;48.748;9.174;2022-08-19T06:48:44;30.17;;;28.67;;
450;SDS011;212;48.748;9.174;2022-08-19T06:51:11;29.00;;;27.60;;
450;SDS011;212;48.748;9.174;2022-08-19T06:53:40;30.10;;;28.60;;
450;SDS011;212;48.748;9.174;2022-08-19T06:56:12;27.90;;;26.50;;
450;SDS011;212;48.748;9.174;2022-08-19T06:58:39;28.70;;;27.30;;
450;SDS011;212;48.748;9.174;2022-08-19T07:01:07;31.17;;;26.97;;
450;SDS011;212;48.748;9.174;2022-08-19T07:03:36;28.60;;;27.20;;
450;SDS011;212;48.748;9.174;2022-08-19T07:06:05;31.10;;;29.60;;
450;SDS011;212;48.748;9.174;2022-08-19T07:08:33;32.57;;;30.40;;
450;SDS011;212;48.748;9.174;2022-08-19T07:11:01;31.20;;;29.50;;
450;SDS011;212;48.748;9.174;2022-08-19T07:13:28;36.07;;;34.27;;
450;SDS011;212;48.748;9.174;2022-08-19T07:16:02;27.80;;;26.40;;
450;SDS011;212;48.748;9.174;2022-08-19T07:18:30;29.37;;;27.93;;
450;SDS011;212;48.748;9.174;2022-08-19T07:21:03;27.53;;;26.13;;
450;SDS011;212;48.748;9.174;2022-08-19T07:23:31;30.70;;;29.20;;
450;SDS011;212;48.748;9.174;2022-08-19T07:25:59;26.57;;;25.27;;
450;SDS011;212;48.748;9.174;2022-08-19T07:28:30;28.20;;;26.80;;
450;SDS011;212;48.748;9.174;2022-08-19T07:30:57;29.20;;;27.80;;
450;SDS011;212;48.748;9.174;2022-08-19T07:33:26;27.77;;;26.37;;
450;SDS011;212;48.748;9.174;2022-08-19T07:35:55;33.23;;;29.70;;
450;SDS011;212;48.748;9.174;2022-08-19T07:38:23;25.83;;;24.53;;
450;SDS011;212;48.748;9.174;2022-08-19T07:40:50;27.33;;;25.97;;
450;SDS011;212;48.748;9.174;2022-08-19T07:43:16;28.43;;;27.03;;
450;SDS011;212;48.748;9.174;2022-08-19T07:45:45;26.97;;;25.63;;
450;SDS011;212;48.748;9.174;2022-08-19T07:48:12;29.50;;;28.03;;
450;SDS011;212;48.748;9.174;2022-08-19T07:50:39;26.50;;;25.20;;
450;SDS011;212;48.748;9.174;2022-08-19T07:53:06;28.57;;;27.17;;
450;SDS011;212;48.748;9.174;2022-08-19T07:55:34;27.90;;;26.50;;
450;SDS011;212;48.748;9.174;2022-08-19T07:58:01;31.27;;;29.77;;
450;SDS011;212;48.748;9.174;2022-08-19T08:00:29;29.00;;;27.60;;
450;SDS011;212;48.748;9.174;2022-08-19T08:02:56;29.30;;;27.90;;
450;SDS011;212;48.748;9.174;2022-08-19T08:05:23;27.67;;;26.27;;
450;SDS011;212;48.748;9.174;2022-08-19T08:08:07;28.20;;;26.80;;
450;SDS011;212;48.748;9.174;2022-08-19T08:11:05;29.33;;;27.90;;
450;SDS011;212;48.748;9.174;2022-08-19T08:13:33;35.00;;;28.60;;
450;SDS011;212;48.748;9.174;2022-08-19T08:16:01;28.07;;;26.67;;
450;SDS011;212;48.748;9.174;2022-08-19T08:18:28;28.27;;;26.87;;
450;SDS011;212;48.748;9.174;2022-08-19T08:20:56;27.03;;;25.70;;
450;SDS011;212;48.748;9.174;2022-08-19T08:23:24;29.40;;;27.37;;
450;SDS011;212;48.748;9.174;2022-08-19T08:25:51;23.90;;;22.70;;
450;SDS011;212;48.748;9.174;2022-08-19T08:28:20;27.93;;;26.07;;
450;SDS011;212;48.748;9.174;2022-08-19T08:30:48;27.73;;;26.33;;
450;SDS011;212;48.748;9.174;2022-08-19T08:33:17;28.80;;;26.40;;
450;SDS011;212;48.748;9.174;2022-08-19T08:35:45;28.90;;;27.50;;
450;SDS011;212;48.748;9.174;2022-08-19T08:38:12;29.50;;;26.50;;
450;SDS011;212;48.748;9.174;2022-08-19T08:40:42;28.00;;;26.60;;
450;SDS011;212;48.748;9.174;2022-08-19T08:43:13;27.77;;;26.37;;
450;SDS011;212;48.748;9.174;2022-08-19T08:45:50;29.30;;;27.87;;
450;SDS011;212;48.748;9.174;2022-08-19T08:48:22;28.33;;;26.97;;
450;SDS011;212;48.748;9.174;2022-08-19T08:50:58;28.10;;;26.70;;
450;SDS011;212;48.748;9.174;2022-08-19T08:53:28;28.50;;;27.10;;
450;SDS011;212;48.748;9.174;2022-08-19T08:55:56;28.43;;;27.03;;
450;SDS011;212;48.748;9.174;2022-08-19T08:58:25;27.03;;;25.73;;
450;SDS011;212;48.748;9.174;2022-08-19T09:00:58;25.57;;;24.27;;
450;SDS011;212;48.748;9.174;2022-08-19T09:03:26;28.07;;;26.67;;
450;SDS011;212;48.748;9.174;2022-08-19T09:05:56;27.30;;;25.93;;
450;SDS011;212;48.748;9.174;2022-08-19T09:08:38;30.40;;;25.60;;
450;SDS011;212;48.748;9.174;2022-08-19T09:11:09;27.50;;;26.10;;
450;SDS011;212;48.748;9.174;2022-08-19T09:13:41;25.90;;;24.60;;
450;SDS011;212;48.748;9.174;2022-08-19T09:16:19;25.40;;;24.10;;
450;SDS011;212;48.748;9.174;2022-08-19T09:18:52;26.50;;;25.20;;
450;SDS011;212;48.748;9.174;2022-08-19T09:21:22;31.23;;;26.60;;
450;SDS011;212;48.748;9.174;2022-08-19T09:23:50;25.73;;;24.43;;
450;SDS011;212;48.748;9.174;2022-08-19T09:26:18;25.73;;;24.43;;
450;SDS011;212;48.748;9.174;2022-08-19T09:28:48;25.20;;;23.00;;
450;SDS011;212;48.748;9.174;2022-08-19T09:31:19;27.47;;;26.07;;
450;SDS011;212;48.748;9.174;2022-08-19T09:33:47;27.33;;;24.03;;
450;SDS011;212;48.748;9.174;2022-08-19T09:36:15;24.73;;;23.30;;
450;SDS011;212;48.748;9.174;2022-08-19T09:38:44;25.43;;;24.13;;
450;SDS011;212;48.748;9.174;2022-08-19T09:41:12;23.93;;;22.73;;
450;SDS011;212;48.748;9.174;2022-08-19T09:43:42;25.60;;;23.97;;
450;SDS011;212;48.748;9.174;2022-08-19T09:46:11;24.87;;;23.67;;
450;SDS011;212;48.748;9.174;2022-08-19T09:48:40;24.80;;;23.60;;
450;SDS011;212;48.748;9.174;2022-08-19T09:51:07;23.47;;;22.27;;
450;SDS011;212;48.748;9.174;2022-08-19T09:53:36;27.60;;;24.57;;
450;SDS011;212;48.748;9.174;2022-08-19T09:56:04;23.50;;;22.30;;
450;SDS011;212;48.748;9.174;2022-08-19T09:58:32;22.27;;;21.17;;
450;SDS011;212;48.748;9.174;2022-08-19T10:01:00;23.27;;;22.07;;
450;SDS011;212;48.748;9.174;2022-08-19T10:03:28;22.37;;;21.27;;
450;SDS011;212;48.748;9.174;2022-08-19T10:05:58;22.43;;;21.33;;
450;SDS011;212;48.748;9.174;2022-08-19T10:08:27;20.50;;;19.50;;
450;SDS011;212;48.748;9.174;2022-08-19T10:10:56;21.90;;;19.93;;
450;SDS011;212;48.748;9.174;2022-08-19T10:13:24;21.97;;;20.87;;
450;SDS011;212;48.748;9.174;2022-08-19T10:15:52;20.47;;;19.47;;
450;SDS011;212;48.748;9.174;2022-08-19T10:18:21;21.67;;;20.57;;
450;SDS011;212;48.748;9.174;2022-08-19T10:20:49;23.03;;;20.57;;
450;SDS011;212;48.748;9.174;2022-08-19T10:23:19;19.10;;;18.13;;
450;SDS011;212;48.748;9.174;2022-08-19T10:25:46;20.80;;;19.80;;
450;SDS011;212;48.748;9.174;2022-08-19T10:28:13;19.73;;;18.73;;
450;SDS011;212;48.748;9.174;2022-08-19T10:30:40;21.67;;;20.57;;
450;SDS011;212;48.748;9.174;2022-08-19T10:33:07;19.77;;;18.77;;
450;SDS011;212;48.748;9.174;2022-08-19T10:35:34;19.73;;;18.47;;
450;SDS011;212;48.748;9.174;2022-08-19T10:38:01;19.97;;;18.97;;
450;SDS011;212;48.748;9.174;2022-08-19T10:40:29;19.63;;;18.63;;
450;SDS011;212;48.748;9.174;2022-08-19T10:42:56;19.57;;;18.57;;
450;SDS011;212;48.748;9.174;2022-08-19T10:45:22;19.80;;;18.80;;
450;SDS011;212;48.748;9.174;2022-08-19T10:47:50;19.57;;;18.57;;
450;SDS011;212;48.748;9.174;2022-08-19T10:50:18;18.80;;;17.87;;
450;SDS011;212;48.748;9.174;2022-08-19T10:53:03;20.00;;;19.00;;
450;SDS011;212;48.748;9.174;2022-08-19T10:55:34;18.10;;;17.20;;
450;SDS011;212;48.748;9.174;2022-08-19T10:58:19;18.93;;;17.97;;
450;SDS011;212;48.748;9.174;2022-08-19T11:00:50;16.90;;;16.03;;
450;SDS011;212;48.748;9.174;2022-08-19T11:03:19;16.33;;;15.53;;
450;SDS011;212;48.748;9.174;2022-08-19T11:05:46;15.40;;;14.60;;
450;SDS011;212;48.748;9.174;2022-08-19T11:08:13;16.03;;;15.23;;
450;SDS011;212;48.748;9.174;2022-08-19T11:10:42;16.20;;;15.40;;
450;SDS011;212;48.748;9.174;2022-08-19T11:13:09;17.60;;;14.87;;
450;SDS011;212;48.748;9.174;2022-08-19T11:15:35;16.53;;;15.73;;
450;SDS011;212;48.748;9.174;2022-08-19T11:18:03;15.17;;;14.37;;
450;SDS011;212;48.748;9.174;2022-08-19T11:20:30;16.43;;;15.00;;
450;SDS011;212;48.748;9.174;2022-08-19T11:22:57;15.20;;;14.40;;
450;SDS011;212;48.748;9.174;2022-08-19T11:25:23;16.93;;;14.83;;
450;SDS011;212;48.748;9.174;2022-08-19T11:27:52;15.57;;;14.77;;
450;SDS011;212;48.748;9.174;2022-08-19T11:30:18;16.03;;;15.23;;
450;SDS011;212;48.748;9.174;2022-08-19T11:32:45;16.27;;;14.60;;
450;SDS011;212;48.748;9.174;2022-08-19T11:35:12;16.17;;;15.37;;
450;SDS011;212;48.748;9.174;2022-08-19T11:37:39;14.73;;;13.97;;
450;SDS011;212;48.748;9.174;2022-08-19T11:40:06;15.50;;;14.70;;
450;SDS011;212;48.748;9.174;2022-08-19T11:42:34;14.60;;;13.87;;
450;SDS011;212;48.748;9.174;2022-08-19T11:45:19;13.93;;;13.23;;
450;SDS011;212;48.748;9.174;2022-08-19T11:47:46;13.93;;;13.23;;
450;SDS011;212;48.748;9.174;2022-08-19T11:50:13;13.77;;;13.07;;
450;SDS011;212;48.748;9.174;2022-08-19T11:52:40;15.30;;;14.50;;
450;SDS011;212;48.748;9.174;2022-08-19T11:55:07;14.00;;;13.30;;
450;SDS011;212;48.748;9.174;2022-08-19T11:57:35;14.30;;;13.30;;
450;SDS011;212;48.748;9.174;2022-08-19T12:00:02;14.30;;;13.60;;
450;SDS011;212;48.748;9.174;2022-08-19T12:02:32;14.20;;;13.37;;
450;SDS011;212;48.748;9.174;2022-08-19T12:04:59;13.97;;;13.27;;
450;SDS011;212;48.748;9.174;2022-08-19T12:07:27;12.67;;;12.00;;
450;SDS011;212;48.748;9.174;2022-08-19T12:09:54;14.20;;;13.50;;
450;SDS011;212;48.748;9.174;2022-08-19T12:12:21;14.07;;;13.37;;
450;SDS011;212;48.748;9.174;2022-08-19T12:14:49;14.63;;;13.10;;
450;SDS011;212;48.748;9.174;2022-08-19T12:17:21;13.37;;;12.67;;
450;SDS011;212;48.748;9.174;2022-08-19T12:19:49;13.80;;;13.10;;
450;SDS011;212;48.748;9.174;2022-08-19T12:22:16;13.30;;;11.73;;
450;SDS011;212;48.748;9.174;2022-08-19T12:24:43;13.27;;;12.57;;
450;SDS011;212;48.748;9.174;2022-08-19T12:27:10;14.23;;;13.53;;
450;SDS011;212;48.748;9.174;2022-08-19T12:29:36;13.23;;;12.53;;
450;SDS011;212;48.748;9.174;2022-08-19T12:32:03;12.17;;;11.57;;
450;SDS011;212;48.748;9.174;2022-08-19T12:34:30;13.03;;;12.33;;
450;SDS011;212;48.748;9.174;2022-08-19T12:37:00;13.03;;;12.33;;
450;SDS011;212;48.748;9.174;2022-08-19T12:39:29;12.67;;;12.00;;
450;SDS011;212;48.748;9.174;2022-08-19T12:41:56;16.87;;;16.00;;
450;SDS011;212;48.748;9.174;2022-08-19T12:44:23;18.53;;;17.63;;
450;SDS011;212;48.748;9.174;2022-08-19T12:46:50;20.73;;;17.83;;
450;SDS011;212;48.748;9.174;2022-08-19T12:49:17;20.53;;;19.53;;
450;SDS011;212;48.748;9.174;2022-08-19T12:51:43;19.80;;;18.80;;
450;SDS011;212;48.748;9.174;2022-08-19T12:54:12;19.77;;;18.77;;
450;SDS011;212;48.748;9.174;2022-08-19T12:56:39;24.33;;;23.13;;
450;SDS011;212;48.748;9.174;2022-08-19T12:59:07;23.60;;;22.40;;
450;SDS011;212;48.748;9.174;2022-08-19T13:01:34;24.37;;;23.17;;
450;SDS011;212;48.748;9.174;2022-08-19T13:04:00;26.07;;;24.77;;
450;SDS011;212;48.748;9.174;2022-08-19T13:06:27;24.33;;;23.13;;
450;SDS011;212;48.748;9.174;2022-08-19T13:08:55;25.77;;;24.47;;
450;SDS011;212;48.748;9.174;2022-08-19T13:11:23;25.53;;;24.23;;
450;SDS011;212;48.748;9.174;2022-08-19T13:13:50;28.07;;;26.67;;
450;SDS011;212;48.748;9.174;2022-08-19T13:16:20;29.90;;;28.40;;
450;SDS011;212;48.748;9.174;2022-08-19T13:18:47;31.67;;;30.07;;
450;SDS011;212;48.748;9.174;2022-08-19T13:21:16;34.30;;;32.60;;
450;SDS011;212;48.748;9.174;2022-08-19T13:23:45;32.77;;;30.93;;
450;SDS011;212;48.748;9.174;2022-08-19T13:26:14;35.30;;;33.57;;
450;SDS011;212;48.748;9.174;2022-08-19T13:28:43;34.77;;;32.13;;
450;SDS011;212;48.748;9.174;2022-08-19T13:31:29;31.90;;;30.30;;
450;SDS011;212;48.748;9.174;2022-08-19T13:34:16;34.57;;;32.87;;
450;SDS011;212;48.748;9.174;2022-08-19T13:36:44;33.87;;;32.17;;
450;SDS011;212;48.748;9.174;2022-08-19T13:39:11;37.50;;;35.20;;
450;SDS011;212;48.748;9.174;2022-08-19T13:41:42;38.07;;;34.27;;
450;SDS011;212;48.748;9.174;2022-08-19T13:44:14;33.73;;;32.07;;
450;SDS011;212;48.748;9.174;2022-08-19T13:46:43;34.80;;;33.10;;
450;SDS011;212;48.748;9.174;2022-08-19T13:49:10;37.27;;;31.47;;
450;SDS011;212;48.748;9.174;2022-08-19T13:51:37;35.07;;;33.37;;
450;SDS011;212;48.748;9.174;2022-08-19T13:54:05;36.23;;;34.43;;
450;SDS011;212;48.748;9.174;2022-08-19T13:56:31;40.13;;;34.27;;
450;SDS011;212;48.748;9.174;2022-08-19T13:58:58;37.50;;;35.70;;
450;SDS011;212;48.748;9.174;2022-08-19T14:01:26;37.90;;;36.00;;
450;SDS011;212;48.748;9.174;2022-08-19T14:03:53;37.83;;;36.00;;
450;SDS011;212;48.748;9.174;2022-08-19T14:06:19;36.83;;;35.03;;
450;SDS011;212;48.748;9.174;2022-08-19T14:08:47;38.80;;;36.20;;
450;SDS011;212;48.748;9.174;2022-08-19T14:11:14;39.73;;;37.83;;
450;SDS011;212;48.748;9.174;2022-08-19T14:13:41;42.10;;;40.00;;
450;SDS011;212;48.748;9.174;2022-08-19T14:16:09;37.60;;;35.77;;
450;SDS011;212;48.748;9.174;2022-08-19T14:18:38;39.47;;;37.57;;
450;SDS011;212;48.748;9.174;2022-08-19T14:21:05;39.03;;;37.13;;
450;SDS011;212;48.748;9.174;2022-08-19T14:23:32;40.67;;;37.90;;
450;SDS011;212;48.748;9.174;2022-08-19T14:26:04;38.07;;;36.17;;
450;SDS011;212;48.748;9.174;2022-08-19T14:28:34;37.77;;;35.93;;
450;SDS011;212;48.748;9.174;2022-08-19T14:31:00;36.30;;;34.50;;
450;SDS011;212;48.748;9.174;2022-08-19T14:33:27;37.27;;;35.47;;
450;SDS011;212;48.748;9.174;2022-08-19T14:35:55;34.83;;;33.13;;
450;SDS011;212;48.748;9.174;2022-08-19T14:38:22;31.37;;;29.83;;
450;SDS011;212;48.748;9.174;2022-08-19T14:40:48;33.53;;;31.90;;
450;SDS011;212;48.748;9.174;2022-08-19T14:43:17;34.90;;;33.20;;
450;SDS011;212;48.748;9.174;2022-08-19T14:45:44;33.07;;;31.47;;
450;SDS011;212;48.748;9.174;2022-08-19T14:48:11;31.37;;;29.80;;
450;SDS011;212;48.748;9.174;2022-08-19T14:50:37;32.73;;;31.13;;
450;SDS011;212;48.748;9.174;2022-08-19T14:53:06;29.87;;;28.37;;
450;SDS011;212;48.748;9.174;2022-08-19T14:55:34;29.13;;;27.73;;
450;SDS011;212;48.748;9.174;2022-08-19T14:58:01;29.77;;;28.27;;
450;SDS011;212;48.748;9.174;2022-08-19T15:00:27;27.93;;;26.57;;
450;SDS011;212;48.748;9.174;2022-08-19T15:02:54;27.63;;;26.23;;
450;SDS011;212;48.748;9.174;2022-08-19T15:05:21;25.23;;;23.97;;
450;SDS011;212;48.748;9.174;2022-08-19T15:07:48;30.40;;;28.90;;
450;SDS011;212;48.748;9.174;2022-08-19T15:10:16;27.70;;;26.30;;
450;SDS011;212;48.748;9.174;2022-08-19T15:12:43;29.50;;;28.03;;
450;SDS011;212;48.748;9.174;2022-08-19T15:15:11;27.93;;;26.53;;
450;SDS011;212;48.748;9.174;2022-08-19T15:17:39;27.03;;;25.73;;
450;SDS011;212;48.748;9.174;2022-08-19T15:20:07;27.07;;;25.77;;
450;SDS011;212;48.748;9.174;2022-08-19T15:22:35;26.40;;;25.10;;